Flight Track Log - Related Links

Times and Time Zones

All times are in EDT time to prevent confusion due to time zone crossing. See the GJS3649 flight status page for this flight to view local times or setup timezone preferences in your user account.

Time Position Orientation Groundspeed Altitude Reporting Facility
EDT Latitude Longitude Course Direction KTS MPH feet Rate Location/Type
Sat 05:45:07 PM 39.8975 -84.2444 341° North 158 182 1,600  Level Indianapolis Center
Sat 05:45:49 PM 39.8922 -84.2928 262° West 188 216 3,200 1,839 Climbing Indianapolis Center
Sat 05:46:09 PM 39.8917 -84.3064 267° West 204 235 3,500 3,951 Climbing Indianapolis Center
Sat 05:47:11 PM 39.9372 -84.3792 309° West 235 270 8,600 3,561 Climbing Indianapolis Center
Sat 05:48:12 PM 39.9919 -84.4189 331° Northwest 223 257 10,800 1,854 Climbing Indianapolis Center
Sat 05:49:00 PM 40.1324 -84.6066 326° Northwest  Level Estimated
Sat 05:49:14 PM 40.0639 -84.4739 330° Northwest 281 323 12,400  Level Indianapolis Center
Sat 05:50:00 PM 40.2032 -84.6394 341° North  Level FlightAware Approximate
Sat 05:50:15 PM 40.1453 -84.5364 330° Northwest 330 380 14,300  Level Indianapolis Center
Sat 05:51:17 PM 40.2308 -84.6033 329° Northwest 350 403 16,600 2,341 Climbing Indianapolis Center
Sat 05:52:18 PM 40.3233 -84.6725 330° Northwest 365 420 19,100 2,410 Climbing Indianapolis Center
Sat 05:53:19 PM 40.4092 -84.7383 330° Northwest 367 422 21,500 1,415 Climbing Indianapolis Center
Sat 05:54:21 PM 40.4983 -84.8072 330° Northwest 371 427 22,000 293 Climbing Indianapolis Center
Sat 05:55:22 PM 40.5883 -84.8942 324° Northwest 396 456 22,100  Climbing Indianapolis Center
Sat 05:56:24 PM 40.6592 -85.0133 308° West 381 438 22,000 -49 Descending Indianapolis Center
Sat 05:57:25 PM 40.7269 -85.1203 310° West 383 441 22,000  Level Indianapolis Center
Sat 05:58:26 PM 40.7931 -85.2283 309° West 381 438 22,000  Level Indianapolis Center
Sat 05:59:28 PM 40.8594 -85.3364 309° West 381 438 22,000  Level Indianapolis Center
Sat 06:00:29 PM 40.9403 -85.4669 309° West 383 441 22,000  Level Indianapolis Center
Sat 06:01:31 PM 41.0064 -85.5767 309° West 383 441 22,000  Level Indianapolis Center
Sat 06:02:32 PM 41.0733 -85.6861 309° West 384 442 22,000  Level Indianapolis Center
Sat 06:03:34 PM 41.1342 -85.7978 306° West 380 437 22,000 -195 Level Indianapolis Center
Sat 06:04:35 PM 41.1842 -85.9200 299° West 378 435 21,600 -934 Descending Indianapolis Center
Sat 06:05:36 PM 41.2336 -86.0408 299° West 374 430 20,100 -1,463 Descending Indianapolis Center
Sat 06:06:38 PM 41.2839 -86.1586 300° West 372 428 18,600 -1,659 Descending Indianapolis Center
Sat 06:07:39 PM 41.3408 -86.3003 298° West 368 423 16,700 -1,659 Descending Indianapolis Center
Sat 06:08:41 PM 41.3864 -86.4150 298° West 363 418 15,200 -1,538 Descending Indianapolis Center
Sat 06:10:15 PM 41.4667 -86.5833 303° West 340 391 12,700 -1,200 Descending Chicago TRACON
Sat 06:11:16 PM 41.5000 -86.7000 291° West 347 399 12,100 -359 Descending Chicago TRACON
Sat 06:12:12 PM 41.5536 -86.7797 312° West 347 399 12,000 -51 Descending Chicago Center
Sat 06:13:13 PM 41.6444 -86.7953 353° North 336 387 12,000  Level Chicago Center
Sat 06:14:15 PM 41.7231 -86.8025 356° North 295 339 12,000 -195 Level Chicago Center
Sat 06:15:16 PM 41.8153 -86.8181 353° North 283 326 11,600 -488 Descending Chicago Center
Sat 06:16:18 PM 41.8856 -86.8547 339° North 278 320 11,000 -293 Descending Chicago Center
Sat 06:17:19 PM 41.9183 -86.9403 297° West 261 300 11,000  Level Chicago Center
Sat 06:18:21 PM 41.9489 -87.0278 295° West 261 300 11,000 -195 Level Chicago Center
Sat 06:19:22 PM 41.9792 -87.1128 296° West 256 295 10,600 -683 Descending Chicago Center
Sat 06:20:24 PM 42.0025 -87.1986 290° West 248 285 9,600 -976 Descending Chicago Center
Sat 06:21:25 PM 42.0019 -87.2906 270° West 248 285 8,600 -1,073 Descending Chicago Center
Sat 06:22:27 PM 42.0019 -87.4058 270° West 257 296 7,400 -829 Descending Chicago Center
Sat 06:23:28 PM 42.0011 -87.4947 269° West 244 281 6,900 -976 Descending Chicago Center
Sat 06:24:30 PM 42.0031 -87.5881 272° West 249 287 5,400 -1,486 Descending Chicago Center
Sat 06:25:17 PM 42.0000 -87.6500 266° West 233 268 4,200 -1,290 Descending Chicago TRACON
Sat 06:26:17 PM 42.0000 -87.7500 270° West 192 221 3,100 -950 Descending Chicago TRACON
Sat 06:27:17 PM 42.0000 -87.8000 270° West 146 168 2,300 -750 Descending Chicago TRACON
Sat 06:28:17 PM 42.0000 -87.8333 270° West 112 129 1,600 -650 Descending Chicago TRACON
Sat 06:29:17 PM 42.0000 -87.8833 270° West 109 125 1,000 -600 Descending Chicago TRACON

Login

Don't have an account? Register now (free) for customized features, flight alerts, and more!